createdAt,value
2019-01-20T00:01:28.629Z,-0.42
2019-01-20T00:03:56.826Z,-0.42
2019-01-20T00:06:25.022Z,-0.43
2019-01-20T00:08:53.229Z,-0.44
2019-01-20T00:11:21.419Z,-0.45
2019-01-20T00:13:49.631Z,-0.45
2019-01-20T00:16:17.828Z,-0.43
2019-01-20T00:18:46.032Z,-0.43
2019-01-20T00:21:14.231Z,-0.43
2019-01-20T00:24:01.864Z,-0.43
2019-01-20T00:26:30.056Z,-0.42
2019-01-20T00:28:58.266Z,-0.41
2019-01-20T00:31:26.456Z,-0.44
2019-01-20T00:33:54.667Z,-0.45
2019-01-20T00:36:22.859Z,-0.47
2019-01-20T00:38:51.051Z,-0.50
2019-01-20T00:41:24.118Z,-0.52
2019-01-20T00:43:49.172Z,-0.55
2019-01-20T00:46:17.386Z,-0.60
2019-01-20T00:48:45.590Z,-0.62
2019-01-20T00:51:13.864Z,-0.63
2019-01-20T00:53:42.061Z,-0.63
2019-01-20T00:56:10.253Z,-0.68
2019-01-20T00:58:38.444Z,-0.73
2019-01-20T01:01:06.661Z,-0.78
2019-01-20T01:03:34.852Z,-0.85
2019-01-20T01:06:03.063Z,-0.90
2019-01-20T01:08:31.261Z,-0.93
2019-01-20T01:10:59.465Z,-0.92
2019-01-20T01:13:27.652Z,-0.92
2019-01-20T01:15:55.859Z,-0.88
2019-01-20T01:18:24.060Z,-0.86
2019-01-20T01:20:52.262Z,-0.85
2019-01-20T01:23:20.458Z,-0.84
2019-01-20T01:25:48.665Z,-0.84
2019-01-20T01:28:16.861Z,-0.86
2019-01-20T01:30:45.070Z,-0.90
2019-01-20T01:33:13.266Z,-0.94
2019-01-20T01:35:41.472Z,-0.97
2019-01-20T01:38:09.678Z,-1.01
2019-01-20T01:40:37.877Z,-1.03
2019-01-20T01:43:06.080Z,-1.03
2019-01-20T01:45:34.294Z,-1.10
2019-01-20T01:48:02.483Z,-1.15
2019-01-20T01:50:30.684Z,-1.20
2019-01-20T01:52:58.877Z,-1.26
2019-01-20T01:55:27.085Z,-1.32
2019-01-20T01:57:55.277Z,-1.35
2019-01-20T02:00:23.462Z,-1.38
2019-01-20T02:02:51.670Z,-1.41
2019-01-20T02:05:19.855Z,-1.42
2019-01-20T02:07:48.063Z,-1.43
2019-01-20T02:10:35.691Z,-1.45
2019-01-20T02:13:03.948Z,-1.44
2019-01-20T02:15:32.142Z,-1.44
2019-01-20T02:18:00.356Z,-1.43
2019-01-20T02:20:28.544Z,-1.42
2019-01-20T02:22:56.753Z,-1.41
2019-01-20T02:25:24.945Z,-1.45
2019-01-20T02:28:12.585Z,-1.54
2019-01-20T02:31:00.223Z,-1.55
2019-01-20T02:33:28.416Z,-1.55
2019-01-20T02:35:56.623Z,-1.58
2019-01-20T02:38:24.817Z,-1.59
2019-01-20T02:40:53.015Z,-1.59
2019-01-20T02:43:21.222Z,-1.60
2019-01-20T02:45:49.418Z,-1.59
2019-01-20T02:48:37.048Z,-1.62
2019-01-20T02:51:05.241Z,-1.62
2019-01-20T02:53:33.452Z,-1.64
2019-01-20T02:56:01.649Z,-1.66
2019-01-20T02:58:29.856Z,-1.69
2019-01-20T03:00:58.045Z,-1.70
2019-01-20T03:03:26.268Z,-1.74
2019-01-20T03:06:13.887Z,-1.77
2019-01-20T03:08:42.093Z,-1.77
2019-01-20T03:11:29.723Z,-1.80
2019-01-20T03:13:57.930Z,-1.80
2019-01-20T03:16:26.119Z,-1.84
2019-01-20T03:21:29.530Z,-1.86
2019-01-20T03:23:57.716Z,-1.79
2019-01-20T03:26:25.920Z,-1.75
2019-01-20T03:28:54.138Z,-1.71
2019-01-20T03:31:22.324Z,-1.70
2019-01-20T03:33:50.534Z,-1.71
2019-01-20T03:36:18.729Z,-1.72
2019-01-20T03:38:46.939Z,-1.74
2019-01-20T03:41:15.124Z,-1.77
2019-01-20T03:43:43.329Z,-1.79
2019-01-20T03:46:11.520Z,-1.84
2019-01-20T03:48:39.734Z,-1.86
2019-01-20T03:51:27.363Z,-1.97
2019-01-20T03:53:55.571Z,-1.97
2019-01-20T03:56:23.750Z,-1.95
2019-01-20T03:58:51.959Z,-1.96
2019-01-20T04:01:20.143Z,-1.97
2019-01-20T04:03:48.347Z,-2.01
2019-01-20T04:06:16.569Z,-2.00
2019-01-20T04:08:44.774Z,-2.00
2019-01-20T04:14:21.277Z,-2.01
2019-01-20T04:17:08.905Z,-1.93
2019-01-20T04:19:37.115Z,-1.93
2019-01-20T04:22:05.316Z,-1.91
2019-01-20T04:24:33.526Z,-1.90
2019-01-20T04:27:01.729Z,-1.90
2019-01-20T04:29:29.915Z,-1.90
2019-01-20T04:31:58.112Z,-1.89
2019-01-20T04:34:26.325Z,-1.87
2019-01-20T04:37:13.945Z,-1.83
2019-01-20T04:39:42.143Z,-1.83
2019-01-20T04:42:10.336Z,-1.87
2019-01-20T04:44:38.544Z,-1.80
2019-01-20T04:47:06.812Z,-1.78
2019-01-20T04:49:35.016Z,-1.74
2019-01-20T04:52:03.215Z,-1.72
2019-01-20T04:54:50.850Z,-1.65
2019-01-20T05:00:48.038Z,-1.62
2019-01-20T05:03:16.249Z,-1.59
2019-01-20T05:05:44.446Z,-1.55
2019-01-20T05:08:32.074Z,-1.47
2019-01-20T05:11:00.269Z,-1.47
2019-01-20T05:13:47.921Z,-1.48
2019-01-20T05:16:16.114Z,-1.48
2019-01-20T05:18:44.314Z,-1.41
2019-01-20T05:21:12.510Z,-1.36
2019-01-20T05:24:00.148Z,-1.35
2019-01-20T05:26:28.340Z,-1.35
2019-01-20T05:28:56.553Z,-1.31
2019-01-20T05:31:24.745Z,-1.27
2019-01-20T05:33:52.950Z,-1.22
2019-01-20T05:36:21.144Z,-1.19
2019-01-20T05:38:49.349Z,-1.17
2019-01-20T05:41:17.544Z,-1.18
2019-01-20T05:43:45.753Z,-1.18
2019-01-20T05:46:13.945Z,-1.17
2019-01-20T05:48:42.137Z,-1.14
2019-01-20T05:51:10.333Z,-1.12
2019-01-20T05:53:38.531Z,-1.11
2019-01-20T05:56:06.732Z,-1.10
2019-01-20T05:58:34.925Z,-1.12
2019-01-20T06:01:03.132Z,-1.10
2019-01-20T06:03:31.325Z,-1.12
2019-01-20T06:05:59.534Z,-1.12
2019-01-20T06:08:27.728Z,-1.14
2019-01-20T06:10:55.932Z,-1.16
2019-01-20T06:13:24.129Z,-1.15
2019-01-20T06:15:52.341Z,-1.15
2019-01-20T06:18:20.546Z,-1.12
2019-01-20T06:20:48.781Z,-1.10
2019-01-20T06:23:16.927Z,-1.08
2019-01-20T06:25:45.137Z,-1.07
2019-01-20T06:28:13.328Z,-1.05
2019-01-20T06:30:41.531Z,-1.04
2019-01-20T06:33:09.729Z,-1.06
2019-01-20T06:35:37.945Z,-1.03
2019-01-20T06:38:06.134Z,-1.02
2019-01-20T06:40:34.338Z,-0.99
2019-01-20T06:43:02.710Z,-0.95
2019-01-20T06:45:30.913Z,-0.95
2019-01-20T06:47:59.111Z,-0.92
2019-01-20T06:50:27.312Z,-0.91
2019-01-20T06:52:55.511Z,-0.91
2019-01-20T06:55:23.719Z,-0.87
2019-01-20T06:57:51.912Z,-0.82
2019-01-20T07:00:39.540Z,-0.78
2019-01-20T07:03:07.739Z,-0.76
2019-01-20T07:05:35.950Z,-0.72
2019-01-20T07:08:04.141Z,-0.72
2019-01-20T07:10:32.347Z,-0.71
2019-01-20T07:13:00.543Z,-0.69
2019-01-20T07:15:28.757Z,-0.70
2019-01-20T07:17:56.951Z,-0.70
2019-01-20T07:20:25.163Z,-0.71
2019-01-20T07:22:53.359Z,-0.74
2019-01-20T07:25:21.567Z,-0.77
2019-01-20T07:27:49.757Z,-0.79
2019-01-20T07:30:37.401Z,-0.82
2019-01-20T07:33:05.661Z,-0.78
2019-01-20T07:35:33.870Z,-0.75
2019-01-20T07:38:02.076Z,-0.75
2019-01-20T07:40:30.277Z,-0.71
2019-01-20T07:42:58.479Z,-0.68
2019-01-20T07:45:26.678Z,-0.66
2019-01-20T07:47:54.888Z,-0.60
2019-01-20T07:51:03.207Z,-0.56
2019-01-20T07:53:31.407Z,-0.52
2019-01-20T07:55:59.625Z,-0.48
2019-01-20T07:58:27.815Z,-0.48
2019-01-20T08:00:56.017Z,-0.45
2019-01-20T08:03:24.208Z,-0.41
2019-01-20T08:05:52.401Z,-0.40
2019-01-20T08:08:20.607Z,-0.39
2019-01-20T08:10:48.800Z,-0.36
2019-01-20T08:13:24.014Z,-0.30
2019-01-20T08:15:46.955Z,-0.23
2019-01-20T08:18:15.160Z,-0.18
2019-01-20T08:20:43.358Z,-0.10
2019-01-20T08:23:11.575Z,-0.06
2019-01-20T08:25:39.766Z,-0.04
2019-01-20T08:28:07.979Z,-0.01
2019-01-20T08:30:36.171Z,0.02
2019-01-20T08:33:04.371Z,0.07
2019-01-20T08:35:32.558Z,0.10
2019-01-20T08:38:00.762Z,0.09
2019-01-20T08:43:43.358Z,0.23
2019-01-20T08:46:51.666Z,0.34
2019-01-20T08:49:19.873Z,0.36
2019-01-20T08:51:48.081Z,0.42
2019-01-20T08:54:16.272Z,0.50
2019-01-20T08:56:44.472Z,0.56
2019-01-20T08:59:12.677Z,0.66
2019-01-20T09:01:40.864Z,0.77
2019-01-20T09:04:09.069Z,0.86
2019-01-20T09:06:37.266Z,0.89
2019-01-20T09:09:45.584Z,0.94
2019-01-20T09:12:13.771Z,0.95
2019-01-20T09:14:41.975Z,0.89
2019-01-20T09:17:10.166Z,0.85
2019-01-20T09:19:38.373Z,0.81
2019-01-20T09:22:06.571Z,0.80
2019-01-20T09:24:34.773Z,0.87
2019-01-20T09:27:02.963Z,0.95
2019-01-20T09:29:31.170Z,1.02
2019-01-20T09:31:59.363Z,1.05
2019-01-20T09:34:27.558Z,1.04
2019-01-20T09:36:55.753Z,1.10
2019-01-20T09:39:23.950Z,1.12
2019-01-20T09:41:52.143Z,1.11
2019-01-20T09:44:20.351Z,1.16
2019-01-20T09:46:48.539Z,1.25
2019-01-20T09:49:16.739Z,1.33
2019-01-20T09:52:04.355Z,1.40
2019-01-20T09:54:32.561Z,1.48
2019-01-20T09:57:00.754Z,1.57
2019-01-20T09:59:28.969Z,1.65
2019-01-20T10:01:57.157Z,1.74
2019-01-20T10:04:25.372Z,1.78
2019-01-20T10:06:53.565Z,1.84
2019-01-20T10:09:21.755Z,1.92
2019-01-20T10:11:49.959Z,1.99
2019-01-20T10:14:18.150Z,2.07
2019-01-20T10:16:46.355Z,2.10
2019-01-20T10:19:14.573Z,2.11
2019-01-20T10:21:42.747Z,2.11
2019-01-20T10:24:10.935Z,2.09
2019-01-20T10:26:40.165Z,2.04
2019-01-20T10:29:09.067Z,2.06
2019-01-20T10:31:37.264Z,2.14
2019-01-20T10:34:05.458Z,2.11
2019-01-20T10:36:33.681Z,2.16
2019-01-20T10:39:01.880Z,2.25
2019-01-20T10:41:30.081Z,2.33
2019-01-20T10:44:02.192Z,2.40
2019-01-20T10:46:28.211Z,2.50
2019-01-20T10:48:56.642Z,2.59
2019-01-20T10:51:24.849Z,2.61
2019-01-20T10:53:53.213Z,2.61
2019-01-20T10:56:21.425Z,2.66
2019-01-20T10:58:49.604Z,2.70
2019-01-20T11:01:17.860Z,2.71
2019-01-20T11:03:46.053Z,2.77
2019-01-20T11:06:14.242Z,2.78
2019-01-20T11:08:42.442Z,2.77
2019-01-20T11:11:10.635Z,2.79
2019-01-20T11:13:38.840Z,2.88
2019-01-20T11:16:07.308Z,2.98
2019-01-20T11:18:36.956Z,3.13
2019-01-20T11:21:05.147Z,3.23
2019-01-20T11:26:12.417Z,3.30
2019-01-20T11:28:40.621Z,3.30
2019-01-20T11:31:08.811Z,3.31
2019-01-20T11:33:37.026Z,3.40
2019-01-20T11:36:05.233Z,3.48
2019-01-20T11:38:33.436Z,3.45
2019-01-20T11:41:01.638Z,3.28
2019-01-20T11:43:29.835Z,3.15
2019-01-20T11:45:58.029Z,3.09
2019-01-20T11:48:26.236Z,3.15
2019-01-20T11:50:54.424Z,3.31
2019-01-20T11:53:22.625Z,3.35
2019-01-20T11:55:51.008Z,3.35
2019-01-20T11:58:19.723Z,3.44
2019-01-20T12:00:47.878Z,3.60
2019-01-20T12:03:16.067Z,3.75
2019-01-20T12:05:44.272Z,3.96
2019-01-20T12:08:20.033Z,4.19
2019-01-20T12:10:48.233Z,4.37
2019-01-20T12:16:05.308Z,4.60
2019-01-20T12:18:33.519Z,4.81
2019-01-20T12:21:01.704Z,4.98
2019-01-20T12:23:29.897Z,5.04
2019-01-20T12:25:58.101Z,5.09
2019-01-20T12:28:26.291Z,5.05
2019-01-20T12:30:54.500Z,5.10
2019-01-20T12:33:22.693Z,5.13
2019-01-20T12:35:50.904Z,5.23
2019-01-20T12:38:19.099Z,5.40
2019-01-20T12:40:47.301Z,5.46
2019-01-20T12:43:15.493Z,5.52
2019-01-20T12:45:43.717Z,5.49
2019-01-20T12:48:11.910Z,5.57
2019-01-20T12:50:40.111Z,5.62
2019-01-20T12:53:08.477Z,5.61
2019-01-20T12:55:36.675Z,5.68
2019-01-20T12:58:24.304Z,5.73
2019-01-20T13:00:52.517Z,5.99
2019-01-20T13:03:20.704Z,6.07
2019-01-20T13:05:48.906Z,6.06
2019-01-20T13:08:17.127Z,6.02
2019-01-20T13:10:45.313Z,5.91
2019-01-20T13:13:13.513Z,5.82
2019-01-20T13:15:41.709Z,5.69
2019-01-20T13:18:09.911Z,5.57
2019-01-20T13:20:38.102Z,5.50
2019-01-20T13:23:06.305Z,5.36
2019-01-20T13:25:34.497Z,5.19
2019-01-20T13:28:02.707Z,5.11
2019-01-20T13:30:30.898Z,4.99
2019-01-20T13:32:59.103Z,4.91
2019-01-20T13:35:27.363Z,4.78
2019-01-20T13:38:14.995Z,4.58
2019-01-20T13:41:02.617Z,4.51
2019-01-20T13:43:30.835Z,4.49
2019-01-20T13:45:59.015Z,4.48
2019-01-20T13:48:27.217Z,4.44
2019-01-20T13:50:55.404Z,4.41
2019-01-20T13:53:23.620Z,4.34
2019-01-20T13:55:51.812Z,4.28
2019-01-20T13:58:20.015Z,4.22
2019-01-20T14:00:49.762Z,4.11
2019-01-20T14:03:18.139Z,4.00
2019-01-20T14:05:46.334Z,3.97
2019-01-20T14:08:14.539Z,3.90
2019-01-20T14:10:42.733Z,3.80
2019-01-20T14:13:10.934Z,3.70
2019-01-20T14:15:39.129Z,3.66
2019-01-20T14:18:07.340Z,3.57
2019-01-20T14:20:35.529Z,3.55
2019-01-20T14:23:03.730Z,3.50
2019-01-20T14:25:31.923Z,3.48
2019-01-20T14:28:00.132Z,3.42
2019-01-20T14:30:47.755Z,3.22
2019-01-20T14:33:15.971Z,3.03
2019-01-20T14:35:44.167Z,2.79
2019-01-20T14:38:12.379Z,2.64
2019-01-20T14:40:40.572Z,2.54
2019-01-20T14:43:08.768Z,2.42
2019-01-20T14:45:36.967Z,2.28
2019-01-20T14:48:05.162Z,2.15
2019-01-20T14:50:33.368Z,2.03
2019-01-20T14:53:01.560Z,1.87
2019-01-20T14:55:29.772Z,1.80
2019-01-20T14:57:57.963Z,1.68
2019-01-20T15:00:45.590Z,1.61
2019-01-20T15:03:13.779Z,1.59
2019-01-20T15:05:41.992Z,1.55
2019-01-20T15:08:10.176Z,1.53
2019-01-20T15:10:38.384Z,1.55
2019-01-20T15:13:06.577Z,1.56
2019-01-20T15:16:14.895Z,1.51
2019-01-20T15:18:43.099Z,1.46
2019-01-20T15:21:11.314Z,1.39
2019-01-20T15:23:39.502Z,1.35
2019-01-20T15:26:07.708Z,1.28
2019-01-20T15:28:35.899Z,1.24
2019-01-20T15:31:04.104Z,1.21
2019-01-20T15:33:32.300Z,1.20
2019-01-20T15:36:00.524Z,1.15
2019-01-20T15:38:28.723Z,1.18
2019-01-20T15:40:56.925Z,1.16
2019-01-20T15:43:25.110Z,1.14
2019-01-20T15:45:53.316Z,1.09
2019-01-20T15:48:21.533Z,1.06
2019-01-20T15:50:49.736Z,1.02
2019-01-20T15:53:17.923Z,0.95
2019-01-20T15:55:46.136Z,0.86
2019-01-20T15:58:14.332Z,0.78
2019-01-20T16:00:42.538Z,0.78
2019-01-20T16:03:10.729Z,0.83
2019-01-20T16:05:38.930Z,0.88
2019-01-20T16:08:07.126Z,0.88
2019-01-20T16:10:35.333Z,0.83
2019-01-20T16:13:03.519Z,0.80
2019-01-20T16:16:11.844Z,0.78
2019-01-20T16:18:40.041Z,0.77
2019-01-20T16:21:08.243Z,0.76
2019-01-20T16:23:36.442Z,0.71
2019-01-20T16:26:04.652Z,0.72
2019-01-20T16:28:32.841Z,0.68
2019-01-20T16:31:01.039Z,0.65
2019-01-20T16:33:29.232Z,0.60
2019-01-20T16:35:57.436Z,0.51
2019-01-20T16:38:25.624Z,0.40
2019-01-20T16:40:53.831Z,0.39
2019-01-20T16:43:22.021Z,0.38
2019-01-20T16:45:50.222Z,0.42
2019-01-20T16:48:18.409Z,0.43
2019-01-20T16:50:46.600Z,0.37
2019-01-20T16:53:14.801Z,0.21
2019-01-20T16:55:42.996Z,0.05
2019-01-20T16:58:11.200Z,-0.08
2019-01-20T17:03:40.117Z,-0.23
2019-01-20T17:06:08.328Z,-0.23
2019-01-20T17:08:36.530Z,-0.24
2019-01-20T17:11:04.713Z,-0.30
2019-01-20T17:13:32.924Z,-0.39
2019-01-20T17:16:01.122Z,-0.46
2019-01-20T17:18:29.334Z,-0.45
2019-01-20T17:20:57.561Z,-0.45
2019-01-20T17:23:25.748Z,-0.49
2019-01-20T17:25:53.935Z,-0.54
2019-01-20T17:28:22.146Z,-0.46
2019-01-20T17:30:50.337Z,-0.36
2019-01-20T17:33:18.555Z,-0.25
2019-01-20T17:35:46.748Z,-0.15
2019-01-20T17:38:14.957Z,-0.08
2019-01-20T17:40:43.154Z,-0.06
2019-01-20T17:46:05.785Z,-0.03
2019-01-20T17:48:34.019Z,-0.04
2019-01-20T17:51:02.215Z,-0.08
2019-01-20T17:53:30.422Z,-0.07
2019-01-20T17:55:58.620Z,-0.14
2019-01-20T17:58:26.835Z,-0.19
2019-01-20T18:03:43.925Z,-0.22
2019-01-20T18:06:12.132Z,-0.20
2019-01-20T18:08:40.331Z,-0.18
2019-01-20T18:11:08.527Z,-0.17
2019-01-20T18:13:36.743Z,-0.21
2019-01-20T18:16:04.934Z,-0.24
2019-01-20T18:18:33.144Z,-0.30
2019-01-20T18:21:01.342Z,-0.29
2019-01-20T18:23:29.556Z,-0.31
2019-01-20T18:25:57.785Z,-0.29
2019-01-20T18:28:25.957Z,-0.28
2019-01-20T18:30:54.168Z,-0.27
2019-01-20T18:33:22.371Z,-0.26
2019-01-20T18:35:50.583Z,-0.31
2019-01-20T18:38:18.774Z,-0.34
2019-01-20T18:40:46.985Z,-0.34
2019-01-20T18:43:15.185Z,-0.39
2019-01-20T18:45:43.392Z,-0.43
2019-01-20T18:48:11.588Z,-0.43
2019-01-20T18:50:39.799Z,-0.40
2019-01-20T18:53:07.998Z,-0.38
2019-01-20T18:55:36.277Z,-0.36
2019-01-20T19:01:18.127Z,-0.50
2019-01-20T19:03:46.323Z,-0.66
2019-01-20T19:06:14.534Z,-0.69
2019-01-20T19:08:42.734Z,-0.71
2019-01-20T19:11:10.939Z,-0.71
2019-01-20T19:13:39.142Z,-0.66
2019-01-20T19:16:09.033Z,-0.60
2019-01-20T19:18:37.273Z,-0.56
2019-01-20T19:21:05.484Z,-0.51
2019-01-20T19:23:33.684Z,-0.50
2019-01-20T19:26:01.896Z,-0.48
2019-01-20T19:28:30.097Z,-0.48
2019-01-20T19:30:58.303Z,-0.49
2019-01-20T19:33:26.497Z,-0.57
2019-01-20T19:35:54.699Z,-0.58
2019-01-20T19:38:22.917Z,-0.63
2019-01-20T19:40:51.112Z,-0.62
2019-01-20T19:43:19.317Z,-0.59
2019-01-20T19:45:47.515Z,-0.61
2019-01-20T19:48:20.077Z,-0.63
2019-01-20T19:50:45.644Z,-0.60
2019-01-20T19:53:13.850Z,-0.54
2019-01-20T19:55:42.045Z,-0.47
2019-01-20T19:58:10.254Z,-0.39
2019-01-20T20:00:38.453Z,-0.36
2019-01-20T20:03:06.658Z,-0.35
2019-01-20T20:05:34.850Z,-0.31
2019-01-20T20:08:03.061Z,-0.24
2019-01-20T20:10:32.294Z,-0.15
2019-01-20T20:13:00.500Z,-0.05
2019-01-20T20:15:28.698Z,-0.01
2019-01-20T20:17:56.908Z,0.03
2019-01-20T20:20:25.094Z,0.07
2019-01-20T20:22:53.297Z,0.08
2019-01-20T20:26:01.599Z,0.06
2019-01-20T20:28:29.803Z,0.03
2019-01-20T20:30:57.996Z,-0.02
2019-01-20T20:33:26.207Z,-0.07
2019-01-20T20:35:54.415Z,-0.20
2019-01-20T20:38:22.617Z,-0.40
2019-01-20T20:40:50.814Z,-0.49
2019-01-20T20:43:19.026Z,-0.48
2019-01-20T20:45:47.230Z,-0.44
2019-01-20T20:48:15.437Z,-0.38
2019-01-20T20:50:43.637Z,-0.33
2019-01-20T20:53:11.950Z,-0.32
2019-01-20T20:55:40.128Z,-0.33
2019-01-20T20:58:08.334Z,-0.32
2019-01-20T21:03:50.546Z,-0.32
2019-01-20T21:06:18.714Z,-0.31
2019-01-20T21:08:48.497Z,-0.33
2019-01-20T21:11:16.850Z,-0.34
2019-01-20T21:13:45.059Z,-0.35
2019-01-20T21:16:13.251Z,-0.39
2019-01-20T21:18:41.463Z,-0.41
2019-01-20T21:21:09.669Z,-0.41
2019-01-20T21:23:37.874Z,-0.41
2019-01-20T21:26:06.080Z,-0.42
2019-01-20T21:28:34.278Z,-0.48
2019-01-20T21:31:02.474Z,-0.51
2019-01-20T21:33:30.702Z,-0.55
2019-01-20T21:35:58.896Z,-0.56
2019-01-20T21:38:27.096Z,-0.62
2019-01-20T21:40:55.301Z,-0.70
2019-01-20T21:43:23.499Z,-0.77
2019-01-20T21:45:51.703Z,-0.86
2019-01-20T21:48:19.897Z,-0.93
2019-01-20T21:50:48.118Z,-0.98
2019-01-20T21:53:16.347Z,-1.06
2019-01-20T21:55:44.533Z,-1.08
2019-01-20T21:58:12.727Z,-1.06
2019-01-20T22:00:40.939Z,-1.04
2019-01-20T22:03:09.132Z,-1.02
2019-01-20T22:05:37.348Z,-0.99
2019-01-20T22:08:05.544Z,-1.00
2019-01-20T22:10:53.173Z,-0.98
2019-01-20T22:13:21.367Z,-0.96
2019-01-20T22:15:49.580Z,-0.94
2019-01-20T22:18:17.773Z,-0.93
2019-01-20T22:20:45.981Z,-0.92
2019-01-20T22:23:14.183Z,-0.91
2019-01-20T22:25:42.383Z,-0.89
2019-01-20T22:28:10.590Z,-0.89
2019-01-20T22:30:38.790Z,-0.89
2019-01-20T22:33:06.994Z,-0.88
2019-01-20T22:35:35.191Z,-0.90
2019-01-20T22:38:03.393Z,-0.92
2019-01-20T22:40:31.591Z,-0.93
2019-01-20T22:42:59.799Z,-0.93
2019-01-20T22:45:27.996Z,-0.97
2019-01-20T22:47:56.199Z,-1.01
2019-01-20T22:50:24.560Z,-1.04
2019-01-20T22:52:52.749Z,-1.07
2019-01-20T22:55:20.969Z,-1.08
2019-01-20T22:57:49.183Z,-1.08
2019-01-20T23:03:27.061Z,-1.06
2019-01-20T23:05:55.258Z,-1.04
2019-01-20T23:08:23.554Z,-1.06
2019-01-20T23:10:51.771Z,-1.08
2019-01-20T23:13:20.094Z,-1.11
2019-01-20T23:15:48.280Z,-1.12
2019-01-20T23:18:16.493Z,-1.14
2019-01-20T23:20:44.685Z,-1.13
2019-01-20T23:23:12.894Z,-1.14
2019-01-20T23:25:41.085Z,-1.14
2019-01-20T23:28:09.321Z,-1.14
2019-01-20T23:30:37.517Z,-1.18
2019-01-20T23:33:05.723Z,-1.20
2019-01-20T23:35:33.915Z,-1.18
2019-01-20T23:38:02.126Z,-1.16
2019-01-20T23:40:30.316Z,-1.14
2019-01-20T23:42:58.529Z,-1.12
2019-01-20T23:45:26.732Z,-1.12
2019-01-20T23:50:28.765Z,-1.24
2019-01-20T23:52:56.992Z,-1.26
2019-01-20T23:55:25.195Z,-1.29
2019-01-20T23:57:53.375Z,-1.32
